Cf Diamond — VRIL5 — position and weather

sailwx.info

Track history (hours):
 
Tides and Currents Weather Stations Pressure Air Temp Water Temp Dewpoint Dewpoint Depression Visibility Wind Speed Wind Dir Waves Ship Positions

Cf Diamond

Last reported at 2017-Dec-02 21:31 UTC. Time now 2017-Dec-12 20:10 UTC.
Position N 35°56' W 126°47'.
Warning: this ship's position is 9 days out of date.

Length 225 m; draft 11.5 m.

Type: Cargo ship. MMSI: 477213100.

Date/timePositionNaut miles runAvg speedWind from/ knotsBaromVisibWave heightAir tempDewpointWater temp
2017-Dec-02 21:31N 35°56' W 126°47'011.6
2017-Dec-02 21:30N 35°56' W 126°47'612.1
2017-Dec-02 21:00N 36°01' W 126°51'612.0
2017-Dec-02 20:30N 36°07' W 126°55'611.9
2017-Dec-02 20:00N 36°12' W 126°58'812.0
2017-Dec-02 19:22N 36°18' W 127°03'411.9
2017-Dec-02 19:00N 36°22' W 127°06'612.2
2017-Dec-02 18:28N 36°28' W 127°10'612.1
2017-Dec-02 18:00N 36°33' W 127°13'612.1
2017-Dec-02 17:29N 36°38' W 127°17'612.1
2017-Dec-02 17:00N 36°43' W 127°21'612.1
2017-Dec-02 16:30N 36°48' W 127°25'2012.5
2017-Dec-02 14:53N 37°06' W 127°37'612.6
2017-Dec-02 14:25N 37°11' W 127°41'612.7
2017-Dec-02 13:55N 37°17' W 127°44'512.8
2017-Dec-02 13:30N 37°22' W 127°46'2212.4
2017-Dec-02 11:43N 37°42' W 127°56'2012.2
2017-Dec-02 10:04N 38°01' W 128°06'112.2
2017-Dec-02 10:00N 38°02' W 128°06'812.1
2017-Dec-02 09:19N 38°10' W 128°10'612.0
2017-Dec-02 08:46N 38°16' W 128°13'611.9
2017-Dec-02 08:17N 38°21' W 128°16'311.9
2017-Dec-02 08:00N 38°24' W 128°18'1311.8
2017-Dec-02 06:53N 38°36' W 128°24'512.0
2017-Dec-02 06:30N 38°40' W 128°27'  
2017-Nov-28 09:37N 53°37' W 130°58'1 5.0
2017-Nov-28 09:25N 53°38' W 130°58'3 4.7
2017-Nov-28 08:51N 53°41' W 130°58'6 5.2
2017-Nov-28 07:37N 53°47' W 130°59'2 5.5
2017-Nov-28 07:20N 53°49' W 130°59'2 5.4
2017-Nov-28 07:00N 53°51' W 130°60'3 6.3
2017-Nov-28 06:30N 53°54' W 130°60'3 6.6
2017-Nov-28 06:00N 53°57' W 131°00'4 7.2
2017-Nov-28 05:30N 54°01' W 131°01'9 8.5
2017-Nov-28 04:30N 54°09' W 131°02'4 9.0
2017-Nov-28 04:00N 54°14' W 131°02'5 9.4
2017-Nov-28 03:30N 54°18' W 131°02'611.5
2017-Nov-28 03:00N 54°19' W 130°52'510.8
2017-Nov-28 02:31N 54°15' W 130°45'612.7
2017-Nov-28 02:00N 54°14' W 130°35'613.0
2017-Nov-28 01:30N 54°12' W 130°24'3 6.3
2017-Nov-28 01:00N 54°14' W 130°20'0 0.4
2017-Nov-28 00:30N 54°14' W 130°20'0 0.1
2017-Nov-27 23:57N 54°14' W 130°20'0 0.1
2017-Nov-27 23:30N 54°14' W 130°20'0 0.0
2017-Nov-27 23:00N 54°14' W 130°20'0 0.1
2017-Nov-27 22:30N 54°14' W 130°20'0 0.1
2017-Nov-27 22:00N 54°14' W 130°20'0 0.1
2017-Nov-27 21:30N 54°14' W 130°20'0 0.1
2017-Nov-27 21:00N 54°14' W 130°20'0 0.0
2017-Nov-27 20:30N 54°14' W 130°20'0 0.0
2017-Nov-27 19:57N 54°14' W 130°20'0 0.0
2017-Nov-27 19:30N 54°14' W 130°20'0 0.0
2017-Nov-27 19:00N 54°14' W 130°20'0 0.0
2017-Nov-27 18:30N 54°14' W 130°20'0 0.0
2017-Nov-27 18:00N 54°14' W 130°20'0 0.0
2017-Nov-27 17:30N 54°14' W 130°20'0 0.0
2017-Nov-27 17:00N 54°14' W 130°20'0 0.0
2017-Nov-27 16:30N 54°14' W 130°20'0 0.0
2017-Nov-27 16:00N 54°14' W 130°20'0 0.0
2017-Nov-27 15:30N 54°14' W 130°20'0 0.1
2017-Nov-27 15:00N 54°14' W 130°20'0 0.0
2017-Nov-27 14:30N 54°14' W 130°20'0 0.1
2017-Nov-27 14:00N 54°14' W 130°20'0 0.0
2017-Nov-27 13:30N 54°14' W 130°20'0 0.0
2017-Nov-27 13:00N 54°14' W 130°20'0 0.0
2017-Nov-27 12:30N 54°14' W 130°20'0 0.0
2017-Nov-27 12:00N 54°14' W 130°20'0 0.0
2017-Nov-27 11:30N 54°14' W 130°20'0 0.1
2017-Nov-27 11:00N 54°14' W 130°20'0 0.1
2017-Nov-27 10:30N 54°14' W 130°20'0 0.0
2017-Nov-27 10:00N 54°14' W 130°20'0 0.0
2017-Nov-27 09:30N 54°14' W 130°20'0 0.0
2017-Nov-27 09:00N 54°14' W 130°20'0 0.0
2017-Nov-27 08:30N 54°14' W 130°20'0 0.1
2017-Nov-27 08:00N 54°14' W 130°20'0 0.1
2017-Nov-27 07:30N 54°14' W 130°20'0 0.1
2017-Nov-27 07:00N 54°14' W 130°20'0 0.1
2017-Nov-27 06:30N 54°14' W 130°20'0 0.0
2017-Nov-27 06:00N 54°14' W 130°20'0 0.0
2017-Nov-27 05:30N 54°14' W 130°20'0 0.1
2017-Nov-27 05:00N 54°14' W 130°20'0 0.1
2017-Nov-27 04:30N 54°14' W 130°20'0 0.0
2017-Nov-27 04:00N 54°14' W 130°20'0 0.0
2017-Nov-27 03:30N 54°14' W 130°20'0 0.0
2017-Nov-27 03:00N 54°14' W 130°20'0 0.1
2017-Nov-27 02:30N 54°14' W 130°20'0 0.0
2017-Nov-27 02:00N 54°14' W 130°20'0 0.1
2017-Nov-27 01:30N 54°14' W 130°20'0 0.0
2017-Nov-27 01:00N 54°14' W 130°20'0 0.0
2017-Nov-27 00:30N 54°14' W 130°20'0 0.1
2017-Nov-27 00:00N 54°14' W 130°20'0 0.1
2017-Nov-26 23:30N 54°14' W 130°20'0 0.1
2017-Nov-26 23:00N 54°14' W 130°20'0 0.1
2017-Nov-26 22:30N 54°14' W 130°20'0 0.1
2017-Nov-26 22:00N 54°14' W 130°20'0 0.1
2017-Nov-26 21:30N 54°14' W 130°20'0 0.0
2017-Nov-26 21:00N 54°14' W 130°20'0 0.0
2017-Nov-26 20:30N 54°14' W 130°20'0 0.0
2017-Nov-26 20:00N 54°14' W 130°20'0 0.0
2017-Nov-26 19:30N 54°14' W 130°20'0 0.0
2017-Nov-26 19:00N 54°14' W 130°20'0 0.0
2017-Nov-26 18:30N 54°14' W 130°20'0 0.0
2017-Nov-26 18:00N 54°14' W 130°20'0 0.0
2017-Nov-26 17:30N 54°14' W 130°20'0 0.0
2017-Nov-26 17:00N 54°14' W 130°20'0 0.0
2017-Nov-26 16:30N 54°14' W 130°20'0 0.1
2017-Nov-26 16:00N 54°14' W 130°20'0 0.1
2017-Nov-26 15:30N 54°14' W 130°20'0 0.1
2017-Nov-26 15:00N 54°14' W 130°20'0 0.1
2017-Nov-26 14:30N 54°14' W 130°20'0 0.0
2017-Nov-26 14:00N 54°14' W 130°20'0 0.0
2017-Nov-26 13:30N 54°14' W 130°20'0 0.0
2017-Nov-26 13:00N 54°14' W 130°20'0 0.0
2017-Nov-26 12:30N 54°14' W 130°20'0 0.1
2017-Nov-26 12:00N 54°14' W 130°20'0 0.1
2017-Nov-26 11:30N 54°14' W 130°20'0 0.0
2017-Nov-26 11:00N 54°14' W 130°20'0 0.0
2017-Nov-26 10:30N 54°14' W 130°20'0 0.0
2017-Nov-26 09:57N 54°14' W 130°20'0 0.0
2017-Nov-26 09:30N 54°14' W 130°20'0 0.0
2017-Nov-26 09:00N 54°14' W 130°20'0 0.0
2017-Nov-26 08:30N 54°14' W 130°20'0 0.0
2017-Nov-26 08:00N 54°14' W 130°20'0 0.0
2017-Nov-26 07:30N 54°14' W 130°20'0 0.0
2017-Nov-26 07:00N 54°14' W 130°20'0 0.0
2017-Nov-26 06:30N 54°14' W 130°20'0 0.0
2017-Nov-26 06:00N 54°14' W 130°20'0 0.0
2017-Nov-26 05:30N 54°14' W 130°20'0 0.1
2017-Nov-26 05:00N 54°14' W 130°20'0 0.1
2017-Nov-26 04:30N 54°14' W 130°20'0 0.0
2017-Nov-26 04:00N 54°14' W 130°20'0 0.0
2017-Nov-26 03:30N 54°14' W 130°20'0 0.1
2017-Nov-26 03:00N 54°14' W 130°20'0 0.1
2017-Nov-26 02:30N 54°14' W 130°20'0 0.0
2017-Nov-26 02:00N 54°14' W 130°20'0 0.0
2017-Nov-26 01:30N 54°14' W 130°20'0 0.0
2017-Nov-26 01:00N 54°14' W 130°20'0 0.0
2017-Nov-26 00:30N 54°14' W 130°20'0 0.0
2017-Nov-26 00:00N 54°14' W 130°20'0 0.0
2017-Nov-25 23:30N 54°14' W 130°20'0 0.1
2017-Nov-25 23:00N 54°14' W 130°20'0 0.1
2017-Nov-25 22:30N 54°14' W 130°20'0 0.1
2017-Nov-25 22:00N 54°14' W 130°20'0 0.1
2017-Nov-25 21:30N 54°14' W 130°20'0 0.0
2017-Nov-25 21:00N 54°14' W 130°20'0 0.0
2017-Nov-25 20:30N 54°14' W 130°20'0 0.0
2017-Nov-25 20:00N 54°14' W 130°20'0 0.0
2017-Nov-25 19:30N 54°14' W 130°20'0 0.0
2017-Nov-25 19:00N 54°14' W 130°20'0 0.0
2017-Nov-25 18:30N 54°14' W 130°20'0 0.0
2017-Nov-25 18:00N 54°14' W 130°20'0 0.0
2017-Nov-25 17:30N 54°14' W 130°20'0 0.1
2017-Nov-25 17:00N 54°14' W 130°20'0 0.1
2017-Nov-25 16:30N 54°14' W 130°20'0 0.0
2017-Nov-25 16:00N 54°14' W 130°20'0 0.0
2017-Nov-25 15:30N 54°14' W 130°20'0 0.0
2017-Nov-25 15:00N 54°14' W 130°20'0 0.0
2017-Nov-25 14:30N 54°14' W 130°20'0 0.0
2017-Nov-25 14:00N 54°14' W 130°20'0 0.0
2017-Nov-25 13:30N 54°14' W 130°20'0 0.0
2017-Nov-25 13:00N 54°14' W 130°20'0 0.0
2017-Nov-25 12:30N 54°14' W 130°20'0 0.1
2017-Nov-25 12:00N 54°14' W 130°20'0 0.1
2017-Nov-25 11:30N 54°14' W 130°20'0 0.0
2017-Nov-25 11:00N 54°14' W 130°20'0 0.0
2017-Nov-25 10:30N 54°14' W 130°20'0 0.0
2017-Nov-25 10:00N 54°14' W 130°20'0 0.0
2017-Nov-25 09:30N 54°14' W 130°20'0 0.0
2017-Nov-25 09:00N 54°14' W 130°20'0 0.0
2017-Nov-25 08:30N 54°14' W 130°20'0 0.0
2017-Nov-25 08:00N 54°14' W 130°20'0 0.0
2017-Nov-25 07:30N 54°14' W 130°20'0 0.0
2017-Nov-25 07:00N 54°14' W 130°20'0 0.0
2017-Nov-25 06:30N 54°14' W 130°20'0 0.0
2017-Nov-25 06:00N 54°14' W 130°20'0 0.7
2017-Nov-25 05:30N 54°14' W 130°20'2 3.9
2017-Nov-25 05:00N 54°12' W 130°21'510.3
2017-Nov-25 04:30N 54°12' W 130°30'1 1.4
2017-Nov-25 03:59N 54°12' W 130°31'0 0.0
2017-Nov-25 03:29N 54°12' W 130°31'0 0.0
2017-Nov-25 02:59N 54°12' W 130°31'0 0.0
2017-Nov-25 02:29N 54°12' W 130°31'0 0.0
2017-Nov-25 01:59N 54°12' W 130°31'0 0.0
2017-Nov-25 01:29N 54°12' W 130°31'0 0.1
2017-Nov-25 00:59N 54°12' W 130°31'0 0.1
2017-Nov-25 00:29N 54°12' W 130°31'0 0.0
2017-Nov-24 23:59N 54°12' W 130°31'0 0.1
2017-Nov-24 23:29N 54°12' W 130°31'0 0.0
2017-Nov-24 22:59N 54°12' W 130°31'0 0.1
2017-Nov-24 22:29N 54°12' W 130°31'0 0.0
2017-Nov-24 21:59N 54°12' W 130°31'0 0.0
2017-Nov-24 21:29N 54°12' W 130°31'0 0.0
2017-Nov-24 20:59N 54°12' W 130°31'0 0.1
2017-Nov-24 20:29N 54°12' W 130°31'0 0.1
2017-Nov-24 19:59N 54°12' W 130°31'0 0.1
2017-Nov-24 19:29N 54°12' W 130°31'0 0.2
2017-Nov-24 18:59N 54°12' W 130°31'0 0.1
2017-Nov-24 18:29N 54°12' W 130°31'0 0.0
2017-Nov-24 17:59N 54°12' W 130°31'0 0.0
2017-Nov-24 17:29N 54°12' W 130°31'0 0.1
2017-Nov-24 16:59N 54°12' W 130°31'0 0.0
2017-Nov-24 16:29N 54°12' W 130°31'0 0.0
2017-Nov-24 15:59N 54°12' W 130°31'0 0.1
2017-Nov-24 15:29N 54°12' W 130°31'0 0.1
2017-Nov-24 14:59N 54°12' W 130°31'0 0.0
2017-Nov-24 14:29N 54°12' W 130°31'0 0.0
2017-Nov-24 13:59N 54°12' W 130°31'0 0.1
2017-Nov-24 13:29N 54°12' W 130°31'0 0.1
2017-Nov-24 12:59N 54°12' W 130°31'0 0.1
2017-Nov-24 12:29N 54°12' W 130°31'0 0.1
2017-Nov-24 11:59N 54°12' W 130°31'0 0.1
2017-Nov-24 11:29N 54°12' W 130°31'0 0.2
2017-Nov-24 10:59N 54°12' W 130°31'0 0.1
2017-Nov-24 10:29N 54°12' W 130°31'0 0.2
2017-Nov-24 09:59N 54°12' W 130°31'0 0.1
2017-Nov-24 09:29N 54°12' W 130°31'0 0.0
2017-Nov-24 08:59N 54°12' W 130°31'0 0.1
2017-Nov-24 08:29N 54°12' W 130°31'0 0.2
2017-Nov-24 07:59N 54°12' W 130°31'0 0.1
2017-Nov-24 07:29N 54°12' W 130°31'0 0.1
2017-Nov-24 06:59N 54°12' W 130°31'0 0.2
2017-Nov-24 06:29N 54°12' W 130°31'0 0.1
2017-Nov-24 05:59N 54°12' W 130°31'0 0.0
2017-Nov-24 05:29N 54°12' W 130°31'0 0.1
2017-Nov-24 04:59N 54°12' W 130°31'0 0.1
2017-Nov-24 04:29N 54°12' W 130°31'0 0.0
2017-Nov-24 03:59N 54°12' W 130°31'0 0.0
2017-Nov-24 03:29N 54°12' W 130°31'0 0.0
2017-Nov-24 02:59N 54°12' W 130°31'0 0.0
2017-Nov-24 02:29N 54°12' W 130°31'0 0.0
2017-Nov-24 01:59N 54°12' W 130°31'0 0.1
2017-Nov-24 01:29N 54°12' W 130°31'0 0.1
2017-Nov-24 00:59N 54°12' W 130°31'0 0.1
2017-Nov-24 00:29N 54°12' W 130°31'0 0.0
2017-Nov-23 23:59N 54°12' W 130°31'0 0.1
2017-Nov-23 23:29N 54°12' W 130°31'0 0.0
2017-Nov-23 22:59N 54°12' W 130°31'0 0.0
2017-Nov-23 22:29N 54°12' W 130°31'0 0.1
2017-Nov-23 21:59N 54°12' W 130°31'0 0.0
2017-Nov-23 21:29N 54°12' W 130°31'0 0.1
2017-Nov-23 20:59N 54°12' W 130°31'0 0.1
2017-Nov-23 20:29N 54°12' W 130°31'0 0.1
2017-Nov-23 19:59N 54°12' W 130°31'0 0.0
2017-Nov-23 19:29N 54°12' W 130°31'0 0.1
2017-Nov-23 18:59N 54°12' W 130°31'0 0.0
2017-Nov-23 18:29N 54°12' W 130°31'0 0.0
2017-Nov-23 17:59N 54°12' W 130°31'0 0.0
2017-Nov-23 17:29N 54°12' W 130°31'0 0.0
2017-Nov-23 16:59N 54°12' W 130°31'0 0.1
2017-Nov-23 16:29N 54°12' W 130°31'0 0.0
2017-Nov-23 15:59N 54°12' W 130°31'0 0.1
2017-Nov-23 15:29N 54°12' W 130°31'0 0.0
2017-Nov-23 14:59N 54°12' W 130°31'0 0.1
2017-Nov-23 14:23N 54°12' W 130°31'0 0.0
2017-Nov-23 13:59N 54°12' W 130°31'0 0.1
2017-Nov-23 13:29N 54°12' W 130°31'0 0.1
2017-Nov-23 12:59N 54°12' W 130°31'0 0.1
2017-Nov-23 12:29N 54°12' W 130°31'0 0.1
2017-Nov-23 11:59N 54°12' W 130°31'0 0.0
2017-Nov-23 11:29N 54°12' W 130°31'0 0.0
2017-Nov-23 10:59N 54°12' W 130°31'0 0.1
2017-Nov-23 10:29N 54°12' W 130°31'0 0.0
2017-Nov-23 09:59N 54°12' W 130°31'0 0.0
2017-Nov-23 09:29N 54°12' W 130°31'0 0.1
2017-Nov-23 08:59N 54°12' W 130°31'0 0.1
2017-Nov-23 08:29N 54°12' W 130°31'0 0.1
2017-Nov-23 07:59N 54°12' W 130°31'0 0.0
2017-Nov-23 07:29N 54°12' W 130°31'0 0.0
2017-Nov-23 06:59N 54°12' W 130°31'0 0.0
2017-Nov-23 06:29N 54°12' W 130°31'0 0.0
2017-Nov-23 05:59N 54°12' W 130°31'0 0.0
2017-Nov-23 05:29N 54°12' W 130°31'0 0.1
2017-Nov-23 04:59N 54°12' W 130°31'0 0.0
2017-Nov-23 04:29N 54°12' W 130°31'0 0.0
2017-Nov-23 03:59N 54°12' W 130°31'0 0.1
2017-Nov-23 03:29N 54°12' W 130°31'0 0.1
2017-Nov-23 02:59N 54°12' W 130°31'0 0.1
2017-Nov-23 02:29N 54°12' W 130°31'0 0.0
2017-Nov-23 01:59N 54°12' W 130°31'0 0.0
2017-Nov-23 01:29N 54°12' W 130°31'0 0.1
2017-Nov-23 00:59N 54°12' W 130°31'0 0.0
2017-Nov-23 00:29N 54°12' W 130°31'0 0.0
2017-Nov-22 23:56N 54°12' W 130°31'0 0.0
2017-Nov-22 23:29N 54°12' W 130°31'0 0.0
2017-Nov-22 22:59N 54°12' W 130°31'0 0.0
2017-Nov-22 22:29N 54°12' W 130°31'0 0.0
2017-Nov-22 21:59N 54°12' W 130°31'  
Track history (hours):
 
Tides and Currents Weather Stations Pressure Air Temp Water Temp Dewpoint Dewpoint Depression Visibility Wind Speed Wind Dir Waves Ship Positions

Cf Diamond

Last reported at 2017-Dec-02 21:31 UTC. Time now 2017-Dec-12 20:10 UTC.
Position N 35°56' W 126°47'.
Warning: this ship's position is 9 days out of date.

Length 225 m; draft 11.5 m.

Type: Cargo ship. MMSI: 477213100.

Date/timePositionNaut miles runAvg speedWind from/ knotsBaromVisibWave heightAir tempDewpointWater temp
2017-Dec-02 21:31N 35°56' W 126°47'011.6
2017-Dec-02 21:30N 35°56' W 126°47'612.1
2017-Dec-02 21:00N 36°01' W 126°51'612.0
2017-Dec-02 20:30N 36°07' W 126°55'611.9
2017-Dec-02 20:00N 36°12' W 126°58'812.0
2017-Dec-02 19:22N 36°18' W 127°03'411.9
2017-Dec-02 19:00N 36°22' W 127°06'612.2
2017-Dec-02 18:28N 36°28' W 127°10'612.1
2017-Dec-02 18:00N 36°33' W 127°13'612.1
2017-Dec-02 17:29N 36°38' W 127°17'612.1
2017-Dec-02 17:00N 36°43' W 127°21'612.1
2017-Dec-02 16:30N 36°48' W 127°25'2012.5
2017-Dec-02 14:53N 37°06' W 127°37'612.6
2017-Dec-02 14:25N 37°11' W 127°41'612.7
2017-Dec-02 13:55N 37°17' W 127°44'512.8
2017-Dec-02 13:30N 37°22' W 127°46'2212.4
2017-Dec-02 11:43N 37°42' W 127°56'2012.2
2017-Dec-02 10:04N 38°01' W 128°06'112.2
2017-Dec-02 10:00N 38°02' W 128°06'812.1
2017-Dec-02 09:19N 38°10' W 128°10'612.0
2017-Dec-02 08:46N 38°16' W 128°13'611.9
2017-Dec-02 08:17N 38°21' W 128°16'311.9
2017-Dec-02 08:00N 38°24' W 128°18'1311.8
2017-Dec-02 06:53N 38°36' W 128°24'512.0
2017-Dec-02 06:30N 38°40' W 128°27'  
2017-Nov-28 09:37N 53°37' W 130°58'1 5.0
2017-Nov-28 09:25N 53°38' W 130°58'3 4.7
2017-Nov-28 08:51N 53°41' W 130°58'6 5.2
2017-Nov-28 07:37N 53°47' W 130°59'2 5.5
2017-Nov-28 07:20N 53°49' W 130°59'2 5.4
2017-Nov-28 07:00N 53°51' W 130°60'3 6.3
2017-Nov-28 06:30N 53°54' W 130°60'3 6.6
2017-Nov-28 06:00N 53°57' W 131°00'4 7.2
2017-Nov-28 05:30N 54°01' W 131°01'9 8.5
2017-Nov-28 04:30N 54°09' W 131°02'4 9.0
2017-Nov-28 04:00N 54°14' W 131°02'5 9.4
2017-Nov-28 03:30N 54°18' W 131°02'611.5
2017-Nov-28 03:00N 54°19' W 130°52'510.8
2017-Nov-28 02:31N 54°15' W 130°45'612.7
2017-Nov-28 02:00N 54°14' W 130°35'613.0
2017-Nov-28 01:30N 54°12' W 130°24'3 6.3
2017-Nov-28 01:00N 54°14' W 130°20'0 0.4
2017-Nov-28 00:30N 54°14' W 130°20'0 0.1
2017-Nov-27 23:57N 54°14' W 130°20'0 0.1
2017-Nov-27 23:30N 54°14' W 130°20'0 0.0
2017-Nov-27 23:00N 54°14' W 130°20'0 0.1
2017-Nov-27 22:30N 54°14' W 130°20'0 0.1
2017-Nov-27 22:00N 54°14' W 130°20'0 0.1
2017-Nov-27 21:30N 54°14' W 130°20'0 0.1
2017-Nov-27 21:00N 54°14' W 130°20'0 0.0
2017-Nov-27 20:30N 54°14' W 130°20'0 0.0
2017-Nov-27 19:57N 54°14' W 130°20'0 0.0
2017-Nov-27 19:30N 54°14' W 130°20'0 0.0
2017-Nov-27 19:00N 54°14' W 130°20'0 0.0
2017-Nov-27 18:30N 54°14' W 130°20'0 0.0
2017-Nov-27 18:00N 54°14' W 130°20'0 0.0
2017-Nov-27 17:30N 54°14' W 130°20'0 0.0
2017-Nov-27 17:00N 54°14' W 130°20'0 0.0
2017-Nov-27 16:30N 54°14' W 130°20'0 0.0
2017-Nov-27 16:00N 54°14' W 130°20'0 0.0
2017-Nov-27 15:30N 54°14' W 130°20'0 0.1
2017-Nov-27 15:00N 54°14' W 130°20'0 0.0
2017-Nov-27 14:30N 54°14' W 130°20'0 0.1
2017-Nov-27 14:00N 54°14' W 130°20'0 0.0
2017-Nov-27 13:30N 54°14' W 130°20'0 0.0
2017-Nov-27 13:00N 54°14' W 130°20'0 0.0
2017-Nov-27 12:30N 54°14' W 130°20'0 0.0
2017-Nov-27 12:00N 54°14' W 130°20'0 0.0
2017-Nov-27 11:30N 54°14' W 130°20'0 0.1
2017-Nov-27 11:00N 54°14' W 130°20'0 0.1
2017-Nov-27 10:30N 54°14' W 130°20'0 0.0
2017-Nov-27 10:00N 54°14' W 130°20'0 0.0
2017-Nov-27 09:30N 54°14' W 130°20'0 0.0
2017-Nov-27 09:00N 54°14' W 130°20'0 0.0
2017-Nov-27 08:30N 54°14' W 130°20'0 0.1
2017-Nov-27 08:00N 54°14' W 130°20'0 0.1
2017-Nov-27 07:30N 54°14' W 130°20'0 0.1
2017-Nov-27 07:00N 54°14' W 130°20'0 0.1
2017-Nov-27 06:30N 54°14' W 130°20'0 0.0
2017-Nov-27 06:00N 54°14' W 130°20'0 0.0
2017-Nov-27 05:30N 54°14' W 130°20'0 0.1
2017-Nov-27 05:00N 54°14' W 130°20'0 0.1
2017-Nov-27 04:30N 54°14' W 130°20'0 0.0
2017-Nov-27 04:00N 54°14' W 130°20'0 0.0
2017-Nov-27 03:30N 54°14' W 130°20'0 0.0
2017-Nov-27 03:00N 54°14' W 130°20'0 0.1
2017-Nov-27 02:30N 54°14' W 130°20'0 0.0
2017-Nov-27 02:00N 54°14' W 130°20'0 0.1
2017-Nov-27 01:30N 54°14' W 130°20'0 0.0
2017-Nov-27 01:00N 54°14' W 130°20'0 0.0
2017-Nov-27 00:30N 54°14' W 130°20'0 0.1
2017-Nov-27 00:00N 54°14' W 130°20'0 0.1
2017-Nov-26 23:30N 54°14' W 130°20'0 0.1
2017-Nov-26 23:00N 54°14' W 130°20'0 0.1
2017-Nov-26 22:30N 54°14' W 130°20'0 0.1
2017-Nov-26 22:00N 54°14' W 130°20'0 0.1
2017-Nov-26 21:30N 54°14' W 130°20'0 0.0
2017-Nov-26 21:00N 54°14' W 130°20'0 0.0
2017-Nov-26 20:30N 54°14' W 130°20'0 0.0
2017-Nov-26 20:00N 54°14' W 130°20'0 0.0
2017-Nov-26 19:30N 54°14' W 130°20'0 0.0
2017-Nov-26 19:00N 54°14' W 130°20'0 0.0
2017-Nov-26 18:30N 54°14' W 130°20'0 0.0
2017-Nov-26 18:00N 54°14' W 130°20'0 0.0
2017-Nov-26 17:30N 54°14' W 130°20'0 0.0
2017-Nov-26 17:00N 54°14' W 130°20'0 0.0
2017-Nov-26 16:30N 54°14' W 130°20'0 0.1
2017-Nov-26 16:00N 54°14' W 130°20'0 0.1
2017-Nov-26 15:30N 54°14' W 130°20'0 0.1
2017-Nov-26 15:00N 54°14' W 130°20'0 0.1
2017-Nov-26 14:30N 54°14' W 130°20'0 0.0
2017-Nov-26 14:00N 54°14' W 130°20'0 0.0
2017-Nov-26 13:30N 54°14' W 130°20'0 0.0
2017-Nov-26 13:00N 54°14' W 130°20'0 0.0
2017-Nov-26 12:30N 54°14' W 130°20'0 0.1
2017-Nov-26 12:00N 54°14' W 130°20'0 0.1
2017-Nov-26 11:30N 54°14' W 130°20'0 0.0
2017-Nov-26 11:00N 54°14' W 130°20'0 0.0
2017-Nov-26 10:30N 54°14' W 130°20'0 0.0
2017-Nov-26 09:57N 54°14' W 130°20'0 0.0
2017-Nov-26 09:30N 54°14' W 130°20'0 0.0
2017-Nov-26 09:00N 54°14' W 130°20'0 0.0
2017-Nov-26 08:30N 54°14' W 130°20'0 0.0
2017-Nov-26 08:00N 54°14' W 130°20'0 0.0
2017-Nov-26 07:30N 54°14' W 130°20'0 0.0
2017-Nov-26 07:00N 54°14' W 130°20'0 0.0
2017-Nov-26 06:30N 54°14' W 130°20'0 0.0
2017-Nov-26 06:00N 54°14' W 130°20'0 0.0
2017-Nov-26 05:30N 54°14' W 130°20'0 0.1
2017-Nov-26 05:00N 54°14' W 130°20'0 0.1
2017-Nov-26 04:30N 54°14' W 130°20'0 0.0
2017-Nov-26 04:00N 54°14' W 130°20'0 0.0
2017-Nov-26 03:30N 54°14' W 130°20'0 0.1
2017-Nov-26 03:00N 54°14' W 130°20'0 0.1
2017-Nov-26 02:30N 54°14' W 130°20'0 0.0
2017-Nov-26 02:00N 54°14' W 130°20'0 0.0
2017-Nov-26 01:30N 54°14' W 130°20'0 0.0
2017-Nov-26 01:00N 54°14' W 130°20'0 0.0
2017-Nov-26 00:30N 54°14' W 130°20'0 0.0
2017-Nov-26 00:00N 54°14' W 130°20'0 0.0
2017-Nov-25 23:30N 54°14' W 130°20'0 0.1
2017-Nov-25 23:00N 54°14' W 130°20'0 0.1
2017-Nov-25 22:30N 54°14' W 130°20'0 0.1
2017-Nov-25 22:00N 54°14' W 130°20'0 0.1
2017-Nov-25 21:30N 54°14' W 130°20'0 0.0
2017-Nov-25 21:00N 54°14' W 130°20'0 0.0
2017-Nov-25 20:30N 54°14' W 130°20'0 0.0
2017-Nov-25 20:00N 54°14' W 130°20'0 0.0
2017-Nov-25 19:30N 54°14' W 130°20'0 0.0
2017-Nov-25 19:00N 54°14' W 130°20'0 0.0
2017-Nov-25 18:30N 54°14' W 130°20'0 0.0
2017-Nov-25 18:00N 54°14' W 130°20'0 0.0
2017-Nov-25 17:30N 54°14' W 130°20'0 0.1
2017-Nov-25 17:00N 54°14' W 130°20'0 0.1
2017-Nov-25 16:30N 54°14' W 130°20'0 0.0
2017-Nov-25 16:00N 54°14' W 130°20'0 0.0
2017-Nov-25 15:30N 54°14' W 130°20'0 0.0
2017-Nov-25 15:00N 54°14' W 130°20'0 0.0
2017-Nov-25 14:30N 54°14' W 130°20'0 0.0
2017-Nov-25 14:00N 54°14' W 130°20'0 0.0
2017-Nov-25 13:30N 54°14' W 130°20'0 0.0
2017-Nov-25 13:00N 54°14' W 130°20'0 0.0
2017-Nov-25 12:30N 54°14' W 130°20'0 0.1
2017-Nov-25 12:00N 54°14' W 130°20'0 0.1
2017-Nov-25 11:30N 54°14' W 130°20'0 0.0
2017-Nov-25 11:00N 54°14' W 130°20'0 0.0
2017-Nov-25 10:30N 54°14' W 130°20'0 0.0
2017-Nov-25 10:00N 54°14' W 130°20'0 0.0
2017-Nov-25 09:30N 54°14' W 130°20'0 0.0
2017-Nov-25 09:00N 54°14' W 130°20'0 0.0
2017-Nov-25 08:30N 54°14' W 130°20'0 0.0
2017-Nov-25 08:00N 54°14' W 130°20'0 0.0
2017-Nov-25 07:30N 54°14' W 130°20'0 0.0
2017-Nov-25 07:00N 54°14' W 130°20'0 0.0
2017-Nov-25 06:30N 54°14' W 130°20'0 0.0
2017-Nov-25 06:00N 54°14' W 130°20'0 0.7
2017-Nov-25 05:30N 54°14' W 130°20'2 3.9
2017-Nov-25 05:00N 54°12' W 130°21'510.3
2017-Nov-25 04:30N 54°12' W 130°30'1 1.4
2017-Nov-25 03:59N 54°12' W 130°31'0 0.0
2017-Nov-25 03:29N 54°12' W 130°31'0 0.0
2017-Nov-25 02:59N 54°12' W 130°31'0 0.0
2017-Nov-25 02:29N 54°12' W 130°31'0 0.0
2017-Nov-25 01:59N 54°12' W 130°31'0 0.0
2017-Nov-25 01:29N 54°12' W 130°31'0 0.1
2017-Nov-25 00:59N 54°12' W 130°31'0 0.1
2017-Nov-25 00:29N 54°12' W 130°31'0 0.0
2017-Nov-24 23:59N 54°12' W 130°31'0 0.1
2017-Nov-24 23:29N 54°12' W 130°31'0 0.0
2017-Nov-24 22:59N 54°12' W 130°31'0 0.1
2017-Nov-24 22:29N 54°12' W 130°31'0 0.0
2017-Nov-24 21:59N 54°12' W 130°31'0 0.0
2017-Nov-24 21:29N 54°12' W 130°31'0 0.0
2017-Nov-24 20:59N 54°12' W 130°31'0 0.1
2017-Nov-24 20:29N 54°12' W 130°31'0 0.1
2017-Nov-24 19:59N 54°12' W 130°31'0 0.1
2017-Nov-24 19:29N 54°12' W 130°31'0 0.2
2017-Nov-24 18:59N 54°12' W 130°31'0 0.1
2017-Nov-24 18:29N 54°12' W 130°31'0 0.0
2017-Nov-24 17:59N 54°12' W 130°31'0 0.0
2017-Nov-24 17:29N 54°12' W 130°31'0 0.1
2017-Nov-24 16:59N 54°12' W 130°31'0 0.0
2017-Nov-24 16:29N 54°12' W 130°31'0 0.0
2017-Nov-24 15:59N 54°12' W 130°31'0 0.1
2017-Nov-24 15:29N 54°12' W 130°31'0 0.1
2017-Nov-24 14:59N 54°12' W 130°31'0 0.0
2017-Nov-24 14:29N 54°12' W 130°31'0 0.0
2017-Nov-24 13:59N 54°12' W 130°31'0 0.1
2017-Nov-24 13:29N 54°12' W 130°31'0 0.1
2017-Nov-24 12:59N 54°12' W 130°31'0 0.1
2017-Nov-24 12:29N 54°12' W 130°31'0 0.1
2017-Nov-24 11:59N 54°12' W 130°31'0 0.1
2017-Nov-24 11:29N 54°12' W 130°31'0 0.2
2017-Nov-24 10:59N 54°12' W 130°31'0 0.1
2017-Nov-24 10:29N 54°12' W 130°31'0 0.2
2017-Nov-24 09:59N 54°12' W 130°31'0 0.1
2017-Nov-24 09:29N 54°12' W 130°31'0 0.0
2017-Nov-24 08:59N 54°12' W 130°31'0 0.1
2017-Nov-24 08:29N 54°12' W 130°31'0 0.2
2017-Nov-24 07:59N 54°12' W 130°31'0 0.1
2017-Nov-24 07:29N 54°12' W 130°31'0 0.1
2017-Nov-24 06:59N 54°12' W 130°31'0 0.2
2017-Nov-24 06:29N 54°12' W 130°31'0 0.1
2017-Nov-24 05:59N 54°12' W 130°31'0 0.0
2017-Nov-24 05:29N 54°12' W 130°31'0 0.1
2017-Nov-24 04:59N 54°12' W 130°31'0 0.1
2017-Nov-24 04:29N 54°12' W 130°31'0 0.0
2017-Nov-24 03:59N 54°12' W 130°31'0 0.0
2017-Nov-24 03:29N 54°12' W 130°31'0 0.0
2017-Nov-24 02:59N 54°12' W 130°31'0 0.0
2017-Nov-24 02:29N 54°12' W 130°31'0 0.0
2017-Nov-24 01:59N 54°12' W 130°31'0 0.1
2017-Nov-24 01:29N 54°12' W 130°31'0 0.1
2017-Nov-24 00:59N 54°12' W 130°31'0 0.1
2017-Nov-24 00:29N 54°12' W 130°31'0 0.0
2017-Nov-23 23:59N 54°12' W 130°31'0 0.1
2017-Nov-23 23:29N 54°12' W 130°31'0 0.0
2017-Nov-23 22:59N 54°12' W 130°31'0 0.0
2017-Nov-23 22:29N 54°12' W 130°31'0 0.1
2017-Nov-23 21:59N 54°12' W 130°31'0 0.0
2017-Nov-23 21:29N 54°12' W 130°31'0 0.1
2017-Nov-23 20:59N 54°12' W 130°31'0 0.1
2017-Nov-23 20:29N 54°12' W 130°31'0 0.1
2017-Nov-23 19:59N 54°12' W 130°31'0 0.0
2017-Nov-23 19:29N 54°12' W 130°31'0 0.1
2017-Nov-23 18:59N 54°12' W 130°31'0 0.0
2017-Nov-23 18:29N 54°12' W 130°31'0 0.0
2017-Nov-23 17:59N 54°12' W 130°31'0 0.0
2017-Nov-23 17:29N 54°12' W 130°31'0 0.0
2017-Nov-23 16:59N 54°12' W 130°31'0 0.1
2017-Nov-23 16:29N 54°12' W 130°31'0 0.0
2017-Nov-23 15:59N 54°12' W 130°31'0 0.1
2017-Nov-23 15:29N 54°12' W 130°31'0 0.0
2017-Nov-23 14:59N 54°12' W 130°31'0 0.1
2017-Nov-23 14:23N 54°12' W 130°31'0 0.0
2017-Nov-23 13:59N 54°12' W 130°31'0 0.1
2017-Nov-23 13:29N 54°12' W 130°31'0 0.1
2017-Nov-23 12:59N 54°12' W 130°31'0 0.1
2017-Nov-23 12:29N 54°12' W 130°31'0 0.1
2017-Nov-23 11:59N 54°12' W 130°31'0 0.0
2017-Nov-23 11:29N 54°12' W 130°31'0 0.0
2017-Nov-23 10:59N 54°12' W 130°31'0 0.1
2017-Nov-23 10:29N 54°12' W 130°31'0 0.0
2017-Nov-23 09:59N 54°12' W 130°31'0 0.0
2017-Nov-23 09:29N 54°12' W 130°31'0 0.1
2017-Nov-23 08:59N 54°12' W 130°31'0 0.1
2017-Nov-23 08:29N 54°12' W 130°31'0 0.1
2017-Nov-23 07:59N 54°12' W 130°31'0 0.0
2017-Nov-23 07:29N 54°12' W 130°31'0 0.0
2017-Nov-23 06:59N 54°12' W 130°31'0 0.0
2017-Nov-23 06:29N 54°12' W 130°31'0 0.0
2017-Nov-23 05:59N 54°12' W 130°31'0 0.0
2017-Nov-23 05:29N 54°12' W 130°31'0 0.1
2017-Nov-23 04:59N 54°12' W 130°31'0 0.0
2017-Nov-23 04:29N 54°12' W 130°31'0 0.0
2017-Nov-23 03:59N 54°12' W 130°31'0 0.1
2017-Nov-23 03:29N 54°12' W 130°31'0 0.1
2017-Nov-23 02:59N 54°12' W 130°31'0 0.1
2017-Nov-23 02:29N 54°12' W 130°31'0 0.0
2017-Nov-23 01:59N 54°12' W 130°31'0 0.0
2017-Nov-23 01:29N 54°12' W 130°31'0 0.1
2017-Nov-23 00:59N 54°12' W 130°31'0 0.0
2017-Nov-23 00:29N 54°12' W 130°31'0 0.0
2017-Nov-22 23:56N 54°12' W 130°31'0 0.0
2017-Nov-22 23:29N 54°12' W 130°31'0 0.0
2017-Nov-22 22:59N 54°12' W 130°31'0 0.0
2017-Nov-22 22:29N 54°12' W 130°31'0 0.0
2017-Nov-22 21:59N 54°12' W 130°31'  

Dump ship's entire track history